Time;durP1;ratioP1;P1;durP2;ratioP2;P2;SDS_P1;SDS_P2;PMS_P1;PMS_P2;Temp;Humidity;BMP_temperature;BMP_pressure;BME280_temperature;BME280_humidity;BME280_pressure;Samples;Min_cycle;Max_cycle;Signal;HPM_P1;HPM_P2
2023/09/13 00:00:38;;;;;;;0.00;0.00;;;17.40;99.90;;;;;;5131495;27;20495;-74
2023/09/13 00:03:04;;;;;;;0.00;0.00;;;17.30;99.90;;;;;;5118892;28;20122;-74
2023/09/13 00:05:30;;;;;;;1.25;0.70;;;17.20;99.90;;;;;;5125838;27;20039;-74
2023/09/13 00:07:55;;;;;;;8.95;0.30;;;17.20;99.90;;;;;;5124236;27;20043;-74
2023/09/13 00:10:21;;;;;;;0.20;0.20;;;17.10;99.90;;;;;;5122489;28;20093;-74
2023/09/13 00:12:47;;;;;;;1.60;0.40;;;17.10;99.90;;;;;;5121239;28;20036;-73
2023/09/13 00:15:12;;;;;;;0.15;0.15;;;17.00;99.90;;;;;;5125648;28;20492;-74
2023/09/13 00:17:38;;;;;;;0.32;0.32;;;17.00;99.90;;;;;;5126004;28;20035;-74
2023/09/13 00:20:05;;;;;;;0.00;0.00;;;16.90;99.90;;;;;;5124969;28;20042;-74
2023/09/13 00:22:31;;;;;;;0.30;0.30;;;16.90;99.90;;;;;;5121603;28;20488;-73
2023/09/13 00:24:56;;;;;;;0.13;0.13;;;16.90;99.90;;;;;;5121849;28;20032;-73
2023/09/13 00:27:22;;;;;;;1.08;0.57;;;16.90;99.90;;;;;;5124263;28;20072;-74
2023/09/13 00:29:47;;;;;;;0.28;0.13;;;16.90;99.90;;;;;;5125712;28;20039;-73
2023/09/13 00:32:13;;;;;;;0.00;0.00;;;16.80;99.90;;;;;;5124951;28;20035;-73
2023/09/13 00:34:39;;;;;;;0.00;0.00;;;16.80;99.90;;;;;;5117102;28;20037;-73
2023/09/13 00:37:04;;;;;;;0.40;0.15;;;16.80;99.90;;;;;;5125288;28;20031;-73
2023/09/13 00:39:30;;;;;;;0.15;0.10;;;16.80;99.90;;;;;;5113675;27;20036;-73
2023/09/13 00:41:57;;;;;;;0.28;0.17;;;16.90;99.90;;;;;;5129021;28;20035;-73
2023/09/13 00:44:23;;;;;;;0.20;0.20;;;16.80;99.90;;;;;;5122270;27;20043;-73
2023/09/13 00:46:49;;;;;;;1.25;0.40;;;16.80;99.90;;;;;;5120864;28;20042;-73
2023/09/13 00:49:15;;;;;;;0.00;0.00;;;16.80;99.90;;;;;;5121487;28;20040;-74
2023/09/13 00:51:41;;;;;;;0.28;0.25;;;16.80;99.90;;;;;;5123539;28;20070;-73
2023/09/13 00:54:07;;;;;;;0.32;0.32;;;16.70;99.90;;;;;;5125350;27;20092;-73
2023/09/13 00:56:33;;;;;;;0.13;0.13;;;16.70;99.90;;;;;;5125619;27;20043;-73
2023/09/13 00:59:00;;;;;;;0.60;0.60;;;16.70;99.90;;;;;;5123388;27;20038;-73
2023/09/13 01:01:27;;;;;;;0.00;0.00;;;16.70;99.90;;;;;;5126216;27;20044;-74
2023/09/13 01:03:54;;;;;;;1.05;0.32;;;16.60;99.90;;;;;;5127393;27;20140;-74
2023/09/13 01:06:20;;;;;;;0.17;0.17;;;16.60;99.90;;;;;;5129140;27;20043;-73
2023/09/13 01:08:46;;;;;;;0.22;0.22;;;16.50;99.90;;;;;;5125555;27;20065;-73
2023/09/13 01:11:12;;;;;;;0.30;0.30;;;16.50;99.90;;;;;;5124957;27;20500;-73
2023/09/13 01:13:37;;;;;;;0.50;0.40;;;16.40;99.90;;;;;;5125692;27;20043;-74
2023/09/13 01:16:14;;;;;;;0.00;0.00;;;16.40;99.90;;;;;;5127406;27;20035;-74
2023/09/13 01:19:05;;;;;;;0.38;0.30;;;16.70;99.90;;;;;;5127010;27;20051;-74
2023/09/13 01:22:01;;;;;;;0.00;0.00;;;16.20;99.90;;;;;;5118541;27;20047;-74
2023/09/13 01:24:47;;;;;;;1.17;0.45;;;16.20;99.90;;;;;;5117407;27;20040;-74
2023/09/13 01:27:36;;;;;;;0.00;0.00;;;16.10;99.90;;;;;;5127264;27;20074;-74
2023/09/13 01:30:04;;;;;;;0.10;0.10;;;16.00;99.90;;;;;;5125771;27;20040;-74
2023/09/13 01:32:32;;;;;;;0.00;0.00;;;16.00;99.90;;;;;;5128289;27;20047;-74
2023/09/13 01:34:58;;;;;;;0.65;0.43;;;16.00;99.90;;;;;;5128933;27;20050;-74
2023/09/13 01:37:23;;;;;;;0.00;0.00;;;15.90;99.90;;;;;;5127347;27;20039;-74
2023/09/13 01:39:49;;;;;;;0.15;0.15;;;15.90;99.90;;;;;;5129282;27;20046;-74
2023/09/13 01:42:16;;;;;;;0.00;0.00;;;15.90;99.90;;;;;;5128444;27;20135;-74
2023/09/13 01:44:45;;;;;;;0.45;0.35;;;15.80;99.90;;;;;;5125935;27;20047;-74
2023/09/13 01:47:14;;;;;;;0.00;0.00;;;15.80;99.90;;;;;;5128702;27;20084;-74
2023/09/13 01:49:43;;;;;;;0.05;0.05;;;15.70;99.90;;;;;;5126806;27;20050;-74
2023/09/13 01:52:09;;;;;;;0.20;0.10;;;15.70;99.90;;;;;;5126490;27;20183;-74
2023/09/13 01:54:36;;;;;;;0.25;0.20;;;15.70;99.90;;;;;;5119697;27;20047;-74
2023/09/13 01:57:02;;;;;;;0.10;0.10;;;15.60;99.90;;;;;;5128511;27;20043;-74
2023/09/13 01:59:31;;;;;;;0.13;0.13;;;15.60;99.90;;;;;;5128675;27;20181;-74
2023/09/13 02:01:56;;;;;;;9.55;0.85;;;15.60;99.90;;;;;;5125892;27;20039;-74
2023/09/13 02:04:22;;;;;;;0.00;0.00;;;15.60;99.90;;;;;;5124986;27;20119;-74
2023/09/13 02:06:48;;;;;;;1.27;0.75;;;15.60;99.90;;;;;;5125416;27;20105;-74
2023/09/13 02:09:14;;;;;;;0.17;0.17;;;15.60;99.90;;;;;;5128259;27;20039;-73
2023/09/13 02:11:39;;;;;;;0.10;0.10;;;15.60;99.90;;;;;;5127720;27;20103;-73
2023/09/13 02:14:05;;;;;;;0.00;0.00;;;15.60;99.90;;;;;;5124317;27;20503;-74
2023/09/13 02:16:30;;;;;;;0.00;0.00;;;15.60;99.90;;;;;;5125030;27;20499;-74
2023/09/13 02:18:57;;;;;;;0.20;0.15;;;15.50;99.90;;;;;;5128099;27;20050;-73
2023/09/13 02:21:23;;;;;;;0.00;0.00;;;15.60;99.90;;;;;;5125120;27;20091;-73
2023/09/13 02:23:48;;;;;;;0.05;0.05;;;15.60;99.90;;;;;;5124214;27;20058;-74
2023/09/13 02:26:21;;;;;;;0.22;0.22;;;15.60;99.90;;;;;;5121241;27;20399;-74
2023/09/13 02:28:46;;;;;;;3.15;0.28;;;15.60;99.90;;;;;;5124671;27;20040;-74
2023/09/13 02:31:12;;;;;;;0.40;0.20;;;15.60;99.90;;;;;;5116797;27;20040;-74
2023/09/13 02:33:38;;;;;;;0.28;0.20;;;15.50;99.90;;;;;;5126118;27;20032;-74
2023/09/13 02:36:04;;;;;;;2.92;1.55;;;15.60;99.90;;;;;;5124664;27;20047;-74
2023/09/13 02:38:29;;;;;;;0.00;0.00;;;15.60;99.90;;;;;;5132847;27;20043;-74
2023/09/13 02:40:55;;;;;;;2.83;0.28;;;15.60;99.90;;;;;;5124848;27;20039;-74
2023/09/13 02:43:21;;;;;;;0.00;0.00;;;15.60;99.90;;;;;;5103249;27;20036;-74
2023/09/13 02:45:47;;;;;;;0.32;0.32;;;15.60;99.90;;;;;;5127951;27;20384;-73
2023/09/13 02:48:12;;;;;;;0.17;0.10;;;15.70;99.90;;;;;;5127538;27;20046;-74
2023/09/13 02:50:41;;;;;;;0.30;0.30;;;15.60;99.90;;;;;;5122003;27;20028;-74
2023/09/13 02:53:06;;;;;;;0.20;0.10;;;15.60;99.90;;;;;;5127183;27;20538;-73
2023/09/13 02:55:32;;;;;;;9.95;0.45;;;15.60;99.90;;;;;;5127819;27;20035;-73
2023/09/13 02:57:58;;;;;;;0.45;0.45;;;15.60;99.90;;;;;;5119212;27;20047;-74
2023/09/13 03:00:23;;;;;;;0.10;0.10;;;15.60;99.90;;;;;;5125955;27;20036;-73
2023/09/13 03:02:49;;;;;;;0.00;0.00;;;15.60;99.90;;;;;;5123547;27;20035;-73
2023/09/13 03:05:15;;;;;;;0.00;0.00;;;15.80;99.90;;;;;;5127289;27;20476;-73
2023/09/13 03:07:41;;;;;;;0.00;0.00;;;15.60;99.90;;;;;;5127064;27;20078;-75
2023/09/13 03:10:07;;;;;;;0.00;0.00;;;15.70;99.90;;;;;;5124648;27;20082;-73
2023/09/13 03:12:33;;;;;;;0.40;0.40;;;15.70;99.90;;;;;;5123370;27;20115;-73
2023/09/13 03:14:59;;;;;;;0.15;0.15;;;15.70;99.90;;;;;;5123354;27;20089;-74
2023/09/13 03:17:25;;;;;;;0.00;0.00;;;15.70;99.90;;;;;;5123986;27;20169;-73
2023/09/13 03:19:50;;;;;;;0.80;0.20;;;15.80;99.90;;;;;;5123591;27;20040;-77
2023/09/13 03:22:16;;;;;;;0.00;0.00;;;15.80;99.90;;;;;;5123541;27;20050;-72
2023/09/13 03:24:42;;;;;;;2.55;1.35;;;15.80;99.90;;;;;;5123441;27;20036;-73
2023/09/13 03:27:08;;;;;;;0.20;0.20;;;15.80;99.90;;;;;;5123886;27;20408;-72
2023/09/13 03:29:34;;;;;;;0.25;0.22;;;15.80;99.90;;;;;;5126843;27;20043;-73
2023/09/13 03:32:00;;;;;;;0.55;0.55;;;15.80;99.90;;;;;;5126184;27;20039;-73
2023/09/13 03:34:26;;;;;;;1.08;0.40;;;15.70;99.90;;;;;;5124285;27;20423;-73
2023/09/13 03:36:53;;;;;;;0.95;0.70;;;15.70;99.90;;;;;;5122131;27;20040;-72
2023/09/13 03:39:18;;;;;;;0.10;0.10;;;15.90;99.90;;;;;;5123560;27;20052;-73
2023/09/13 03:41:44;;;;;;;0.25;0.20;;;15.70;99.90;;;;;;5115507;27;20378;-72
2023/09/13 03:44:10;;;;;;;0.47;0.30;;;15.80;99.90;;;;;;5123286;27;20040;-73
2023/09/13 03:46:37;;;;;;;0.00;0.00;;;15.80;85.90;;;;;;5125107;27;20508;-73
2023/09/13 03:49:03;;;;;;;0.00;0.00;;;15.80;70.00;;;;;;5126359;27;20134;-72
2023/09/13 03:51:29;;;;;;;8.48;0.13;;;15.90;1.00;;;;;;5102781;27;20074;-73
2023/09/13 03:53:55;;;;;;;0.08;0.05;;;16.00;99.90;;;;;;5122167;27;20527;-72
2023/09/13 03:56:21;;;;;;;0.47;0.28;;;16.00;99.90;;;;;;5123240;27;20050;-72
2023/09/13 03:58:47;;;;;;;0.13;0.13;;;16.00;99.90;;;;;;5124587;27;20032;-72
2023/09/13 04:01:12;;;;;;;0.10;0.03;;;16.10;99.90;;;;;;5131890;27;20435;-72
2023/09/13 04:03:38;;;;;;;0.50;0.32;;;16.10;25.00;;;;;;5126072;27;20050;-72
2023/09/13 04:06:04;;;;;;;0.52;0.52;;;16.00;82.00;;;;;;5122764;27;20032;-72
2023/09/13 04:08:29;;;;;;;0.10;0.03;;;16.00;12.70;;;;;;5120600;27;20039;-73
2023/09/13 04:10:56;;;;;;;5.40;0.47;;;16.00;99.90;;;;;;5118031;27;20432;-72
2023/09/13 04:13:21;;;;;;;0.75;0.60;;;16.00;99.90;;;;;;5126118;27;20031;-72
2023/09/13 04:15:47;;;;;;;0.00;0.00;;;16.00;99.90;;;;;;5125974;28;20488;-72
2023/09/13 04:18:13;;;;;;;0.00;0.00;;;16.00;99.90;;;;;;5125889;28;20039;-73
2023/09/13 04:20:39;;;;;;;0.00;0.00;;;16.00;86.20;;;;;;5119762;27;20123;-73
2023/09/13 04:23:04;;;;;;;0.85;0.75;;;16.00;92.70;;;;;;5121585;27;20074;-72
2023/09/13 04:25:30;;;;;;;0.00;0.00;;;15.90;99.90;;;;;;5122932;28;20058;-73
2023/09/13 04:27:55;;;;;;;0.00;0.00;;;15.90;97.60;;;;;;5122771;28;20043;-73
2023/09/13 04:30:21;;;;;;;0.00;0.00;;;15.90;99.90;;;;;;5130179;28;20057;-72
2023/09/13 04:32:49;;;;;;;0.00;0.00;;;15.90;4.70;;;;;;5126065;27;20107;-72
2023/09/13 04:35:15;;;;;;;0.00;0.00;;;15.90;99.90;;;;;;5129981;27;20086;-72
2023/09/13 04:37:42;;;;;;;0.47;0.47;;;15.80;1.00;;;;;;5126955;27;20073;-73
2023/09/13 04:40:08;;;;;;;1.67;0.52;;;15.80;10.40;;;;;;5125995;27;20545;-73
2023/09/13 04:42:40;;;;;;;6.30;1.13;;;15.70;99.90;;;;;;5128588;27;20122;-73
2023/09/13 04:45:06;;;;;;;0.20;0.20;;;15.60;1.00;;;;;;5124634;27;20043;-72
2023/09/13 04:47:32;;;;;;;0.22;0.17;;;15.50;99.90;;;;;;5128326;27;20484;-72
2023/09/13 04:49:58;;;;;;;0.30;0.22;;;15.30;73.80;;;;;;5126422;27;20046;-72
2023/09/13 04:52:23;;;;;;;0.00;0.00;;;15.20;99.90;;;;;;5125930;27;20415;-72
2023/09/13 04:54:49;;;;;;;0.00;0.00;;;15.00;99.90;;;;;;5128470;27;20044;-73
2023/09/13 04:57:14;;;;;;;0.32;0.30;;;14.90;1.00;;;;;;5128357;27;20043;-73
2023/09/13 04:59:45;;;;;;;0.32;0.32;;;14.80;1.00;;;;;;5119773;27;20043;-73
2023/09/13 05:02:12;;;;;;;0.03;0.03;;;14.80;1.00;;;;;;5128285;27;20066;-73
2023/09/13 05:04:38;;;;;;;3.10;0.20;;;14.70;1.00;;;;;;5128423;27;20039;-73
2023/09/13 05:07:04;;;;;;;0.00;0.00;;;14.60;29.50;;;;;;5125119;27;20443;-73
2023/09/13 05:09:30;;;;;;;0.00;0.00;;;14.60;85.50;;;;;;5129575;27;20396;-73
2023/09/13 05:11:56;;;;;;;0.00;0.00;;;14.50;97.70;;;;;;5127000;27;20035;-73
2023/09/13 05:14:21;;;;;;;0.00;0.00;;;14.50;99.90;;;;;;5124959;27;20073;-73
2023/09/13 05:16:47;;;;;;;0.03;0.03;;;14.40;99.90;;;;;;5124876;27;20050;-74
2023/09/13 05:19:13;;;;;;;0.10;0.10;;;14.50;99.90;;;;;;5124918;27;20473;-74
2023/09/13 05:21:38;;;;;;;0.00;0.00;;;14.30;99.90;;;;;;5124733;27;20119;-74
2023/09/13 05:24:04;;;;;;;0.00;0.00;;;14.50;99.90;;;;;;5124978;27;20043;-74
2023/09/13 05:26:30;;;;;;;0.75;0.65;;;14.20;99.90;;;;;;5127981;27;20032;-74
2023/09/13 05:28:55;;;;;;;0.65;0.40;;;14.20;99.90;;;;;;5128209;27;20051;-74
2023/09/13 05:31:21;;;;;;;0.00;0.00;;;14.20;99.90;;;;;;5126419;27;20473;-75
2023/09/13 05:33:46;;;;;;;0.13;0.10;;;14.20;99.90;;;;;;5127707;27;20120;-76
2023/09/13 05:36:13;;;;;;;0.00;0.00;;;14.30;99.90;;;;;;5116711;27;20066;-75
2023/09/13 05:38:39;;;;;;;0.00;0.00;;;14.30;99.90;;;;;;5130540;27;20035;-76
2023/09/13 05:41:13;;;;;;;6.93;0.75;;;14.30;99.90;;;;;;5124361;27;20044;-75
2023/09/13 05:43:41;;;;;;;0.00;0.00;;;14.30;99.90;;;;;;5127107;27;20413;-77
2023/09/13 05:46:08;;;;;;;0.00;0.00;;;14.30;99.90;;;;;;5120330;27;20035;-77
2023/09/13 05:48:34;;;;;;;0.20;0.20;;;14.20;99.90;;;;;;5120492;27;20047;-76
2023/09/13 05:51:00;;;;;;;0.90;0.47;;;14.10;99.90;;;;;;5127476;27;20094;-77
2023/09/13 05:53:26;;;;;;;0.68;0.60;;;14.00;99.90;;;;;;5127716;27;20079;-77
2023/09/13 05:55:52;;;;;;;0.10;0.10;;;13.90;99.90;;;;;;5124584;27;20043;-78
2023/09/13 05:58:18;;;;;;;0.95;0.68;;;13.90;99.90;;;;;;5123285;27;20057;-78
2023/09/13 06:00:46;;;;;;;4.07;1.38;;;13.80;99.90;;;;;;5120320;27;20043;-78
2023/09/13 06:03:12;;;;;;;1.88;0.77;;;13.80;99.90;;;;;;5110392;27;20039;-77
2023/09/13 06:05:38;;;;;;;0.15;0.13;;;13.80;99.90;;;;;;5117603;27;20598;-77
2023/09/13 06:08:04;;;;;;;0.35;0.15;;;13.80;99.90;;;;;;5123704;27;20377;-79
2023/09/13 06:10:30;;;;;;;2.65;0.93;;;13.80;99.90;;;;;;5119532;27;20548;-79
2023/09/13 06:12:55;;;;;;;0.00;0.00;;;13.80;99.90;;;;;;5122536;27;20100;-79
2023/09/13 06:15:21;;;;;;;0.00;0.00;;;13.80;99.90;;;;;;5124174;27;20469;-80
2023/09/13 06:17:47;;;;;;;0.00;0.00;;;13.90;99.90;;;;;;5110739;27;20048;-78
2023/09/13 06:20:12;;;;;;;0.10;0.10;;;13.90;99.90;;;;;;5124961;27;20047;-79
2023/09/13 06:22:38;;;;;;;0.00;0.00;;;14.10;99.90;;;;;;5119155;27;20035;-78
2023/09/13 06:25:04;;;;;;;0.45;0.30;;;14.40;99.90;;;;;;5120963;27;20103;-77
2023/09/13 06:27:30;;;;;;;0.20;0.20;;;14.00;99.90;;;;;;5113515;27;20044;-78
2023/09/13 06:29:56;;;;;;;0.95;0.75;;;13.90;99.90;;;;;;5122473;27;20196;-78
2023/09/13 06:32:21;;;;;;;1.15;0.80;;;13.80;99.90;;;;;;5124208;27;20082;-77
2023/09/13 06:34:47;;;;;;;1.38;0.70;;;13.90;99.90;;;;;;5124409;27;20039;-77
2023/09/13 06:37:13;;;;;;;1.23;0.50;;;13.80;99.90;;;;;;5123731;27;20053;-77
2023/09/13 06:39:39;;;;;;;0.43;0.40;;;13.80;99.90;;;;;;5120932;27;20526;-77
2023/09/13 06:42:06;;;;;;;3.83;0.98;;;13.80;99.90;;;;;;5119329;27;20043;-77
2023/09/13 06:44:32;;;;;;;0.00;0.00;;;13.90;99.90;;;;;;5122136;27;20122;-77
2023/09/13 06:46:58;;;;;;;0.73;0.52;;;13.90;99.90;;;;;;5124978;27;20149;-76
2023/09/13 06:49:24;;;;;;;0.10;0.10;;;13.90;99.90;;;;;;5126674;27;20039;-76
2023/09/13 06:51:50;;;;;;;7.35;0.55;;;13.90;99.90;;;;;;5118109;27;20546;-77
2023/09/13 06:54:16;;;;;;;0.65;0.45;;;13.90;99.90;;;;;;5122336;27;20040;-77
2023/09/13 06:56:44;;;;;;;0.22;0.08;;;13.90;99.90;;;;;;5123513;27;20043;-77
2023/09/13 06:59:11;;;;;;;0.00;0.00;;;14.00;99.90;;;;;;5135062;27;20471;-76
2023/09/13 07:01:38;;;;;;;2.90;0.35;;;14.00;99.90;;;;;;5119716;27;20096;-76
2023/09/13 07:04:04;;;;;;;0.13;0.10;;;14.10;99.90;;;;;;5122628;27;20052;-76
2023/09/13 07:06:30;;;;;;;0.45;0.45;;;14.30;99.90;;;;;;5122074;27;20039;-76
2023/09/13 07:08:55;;;;;;;0.03;0.03;;;14.30;99.90;;;;;;5122092;27;20050;-76
2023/09/13 07:11:22;;;;;;;0.20;0.20;;;14.40;99.90;;;;;;5123838;27;20042;-76
2023/09/13 07:13:48;;;;;;;0.00;0.00;;;14.40;99.90;;;;;;5124014;27;20039;-76
2023/09/13 07:16:14;;;;;;;0.03;0.03;;;14.40;99.90;;;;;;5121111;27;20546;-76
2023/09/13 07:18:40;;;;;;;1.27;0.30;;;14.40;99.90;;;;;;5121999;27;20066;-76
2023/09/13 07:21:06;;;;;;;0.05;0.05;;;14.30;99.90;;;;;;5122445;27;20419;-76
2023/09/13 07:23:31;;;;;;;0.65;0.45;;;14.30;99.90;;;;;;5121396;27;20047;-76
2023/09/13 07:25:57;;;;;;;0.00;0.00;;;14.40;99.90;;;;;;5122545;27;20031;-76
2023/09/13 07:28:23;;;;;;;0.08;0.08;;;14.50;99.90;;;;;;5125808;27;20047;-76
2023/09/13 07:30:48;;;;;;;1.90;0.98;;;14.90;99.90;;;;;;5122436;27;20040;-76
2023/09/13 07:33:14;;;;;;;0.28;0.28;;;14.70;99.90;;;;;;5123418;27;20084;-76
2023/09/13 07:35:40;;;;;;;0.00;0.00;;;14.70;99.90;;;;;;5125650;27;20538;-76
2023/09/13 07:38:05;;;;;;;0.00;0.00;;;14.70;99.90;;;;;;5117379;27;20035;-76
2023/09/13 07:40:31;;;;;;;1.33;0.95;;;14.80;99.90;;;;;;5123534;27;20044;-76
2023/09/13 07:42:57;;;;;;;2.63;0.55;;;14.80;99.90;;;;;;5125677;27;20027;-76
2023/09/13 07:45:22;;;;;;;10.93;1.45;;;14.80;99.90;;;;;;5125314;27;20032;-76
2023/09/13 07:47:49;;;;;;;0.80;0.55;;;14.70;99.90;;;;;;5117238;27;20035;-76
2023/09/13 07:50:40;;;;;;;0.57;0.52;;;14.60;99.90;;;;;;5125546;27;20035;-76
2023/09/13 07:53:07;;;;;;;0.00;0.00;;;14.50;99.90;;;;;;5115635;27;20070;-75
2023/09/13 07:55:33;;;;;;;0.00;0.00;;;14.50;99.90;;;;;;5122400;27;20493;-76
2023/09/13 07:57:59;;;;;;;0.03;0.03;;;14.40;99.90;;;;;;5118902;27;20080;-75
2023/09/13 08:00:25;;;;;;;0.55;0.55;;;14.40;99.90;;;;;;5125145;27;20035;-75
2023/09/13 08:02:51;;;;;;;0.22;0.20;;;14.50;99.90;;;;;;5122926;27;20495;-75
2023/09/13 08:05:17;;;;;;;1.58;1.23;;;14.50;99.90;;;;;;5121783;27;20039;-75
2023/09/13 08:07:47;;;;;;;0.73;0.40;;;14.60;99.90;;;;;;5114523;28;20405;-75
2023/09/13 08:10:13;;;;;;;1.10;0.65;;;14.70;99.90;;;;;;5125343;27;20043;-75
2023/09/13 08:12:40;;;;;;;0.22;0.22;;;14.90;99.90;;;;;;5125031;27;20043;-75
2023/09/13 08:15:06;;;;;;;0.20;0.20;;;15.10;99.90;;;;;;5122807;28;20111;-75
2023/09/13 08:17:33;;;;;;;3.63;1.45;;;15.20;99.90;;;;;;5117828;28;20563;-75
2023/09/13 08:19:59;;;;;;;1.02;0.75;;;15.20;99.90;;;;;;5124268;27;20427;-75
2023/09/13 08:22:25;;;;;;;0.43;0.25;;;15.20;99.90;;;;;;5121929;28;20044;-75
2023/09/13 08:24:51;;;;;;;0.10;0.10;;;15.20;99.90;;;;;;5121739;28;20422;-75
2023/09/13 08:27:16;;;;;;;0.10;0.10;;;15.50;99.90;;;;;;5124570;28;20088;-75
2023/09/13 08:29:42;;;;;;;0.10;0.10;;;15.30;99.90;;;;;;5121646;28;20039;-75
2023/09/13 08:32:07;;;;;;;1.08;0.90;;;15.40;99.90;;;;;;5121946;28;20096;-75
2023/09/13 08:34:34;;;;;;;1.35;0.63;;;15.40;99.90;;;;;;5124824;28;20562;-75
2023/09/13 08:36:59;;;;;;;0.10;0.10;;;15.50;99.90;;;;;;5111407;27;20117;-75
2023/09/13 08:39:25;;;;;;;0.00;0.00;;;15.70;99.90;;;;;;5121314;28;20507;-75
2023/09/13 08:41:55;;;;;;;0.00;0.00;;;15.70;99.90;;;;;;5124952;28;20059;-75
2023/09/13 08:44:22;;;;;;;3.20;1.10;;;15.80;99.90;;;;;;5124441;27;20096;-75
2023/09/13 08:46:56;;;;;;;0.00;0.00;;;16.00;99.90;;;;;;5114613;28;20125;-75
2023/09/13 08:49:26;;;;;;;0.73;0.73;;;16.10;99.90;;;;;;5124762;27;20068;-75
2023/09/13 08:51:52;;;;;;;0.00;0.00;;;16.40;99.90;;;;;;5113345;28;20052;-75
2023/09/13 08:54:19;;;;;;;6.63;1.23;;;16.30;99.90;;;;;;5121378;28;20082;-75
2023/09/13 08:56:45;;;;;;;0.65;0.50;;;16.30;99.90;;;;;;5117713;28;20036;-75
2023/09/13 08:59:15;;;;;;;0.08;0.08;;;16.30;99.90;;;;;;5124610;27;20467;-75
2023/09/13 09:01:46;;;;;;;0.00;0.00;;;16.30;99.90;;;;;;5123841;27;20056;-76
2023/09/13 09:04:14;;;;;;;0.75;0.38;;;16.10;1.00;;;;;;5121507;28;20059;-75
2023/09/13 09:06:41;;;;;;;0.10;0.10;;;16.10;1.00;;;;;;5120619;28;20047;-75
2023/09/13 09:09:07;;;;;;;0.10;0.10;;;16.00;1.00;;;;;;5113119;28;20405;-75
2023/09/13 09:11:36;;;;;;;0.00;0.00;;;16.00;1.00;;;;;;5121277;28;20122;-75
2023/09/13 09:14:03;;;;;;;0.00;0.00;;;15.90;1.00;;;;;;5123058;28;20405;-75
2023/09/13 09:16:30;;;;;;;0.05;0.05;;;15.90;1.00;;;;;;5120084;27;20040;-75
2023/09/13 09:19:00;;;;;;;4.70;1.00;;;15.80;1.00;;;;;;5122146;28;20176;-75
2023/09/13 09:21:26;;;;;;;1.25;0.93;;;15.80;1.00;;;;;;5128405;27;20054;-75
2023/09/13 09:23:52;;;;;;;0.00;0.00;;;15.90;99.90;;;;;;5127399;27;20480;-75
2023/09/13 09:26:18;;;;;;;0.10;0.10;;;16.10;1.00;;;;;;5125749;27;20039;-75
2023/09/13 09:28:43;;;;;;;0.55;0.40;;;16.00;99.90;;;;;;5124610;27;20561;-75
2023/09/13 09:31:10;;;;;;;0.52;0.43;;;16.20;99.90;;;;;;5124889;27;20489;-75
2023/09/13 09:33:38;;;;;;;0.90;0.90;;;16.30;99.90;;;;;;5124801;27;20035;-75
2023/09/13 09:36:04;;;;;;;0.32;0.10;;;16.30;99.90;;;;;;5120549;27;20101;-75
2023/09/13 09:38:30;;;;;;;0.55;0.45;;;16.30;99.90;;;;;;5126538;27;20508;-75
2023/09/13 09:41:06;;;;;;;0.00;0.00;;;16.40;99.90;;;;;;5127737;27;20480;-75
2023/09/13 09:43:32;;;;;;;0.38;0.28;;;16.40;1.00;;;;;;5122408;27;20051;-75
2023/09/13 09:45:58;;;;;;;0.30;0.20;;;16.40;99.90;;;;;;5128018;27;20044;-75
2023/09/13 09:48:26;;;;;;;0.40;0.40;;;16.10;1.00;;;;;;5127661;27;20031;-75
2023/09/13 09:50:53;;;;;;;2.15;0.13;;;15.90;99.90;;;;;;5124319;27;20037;-76
2023/09/13 09:53:21;;;;;;;0.08;0.08;;;15.60;99.90;;;;;;5123710;27;20094;-76
2023/09/13 09:55:50;;;;;;;0.45;0.30;;;15.60;75.90;;;;;;5124312;27;20067;-76
2023/09/13 09:58:17;;;;;;;2.80;0.52;;;15.60;99.90;;;;;;5127764;27;20050;-76
2023/09/13 10:00:47;;;;;;;0.32;0.32;;;15.70;99.90;;;;;;5126659;27;20068;-76
2023/09/13 10:03:17;;;;;;;0.93;0.47;;;15.50;99.90;;;;;;5123768;27;20048;-77
2023/09/13 10:06:03;;;;;;;0.35;0.35;;;15.50;99.90;;;;;;5126490;27;20039;-76
2023/09/13 10:08:55;;;;;;;0.00;0.00;;;15.40;66.20;;;;;;5122622;27;20043;-76
2023/09/13 10:11:21;;;;;;;0.00;0.00;;;15.30;46.00;;;;;;5114864;27;20047;-76
2023/09/13 10:13:48;;;;;;;5.47;0.70;;;15.40;98.90;;;;;;5122813;27;20050;-76
2023/09/13 10:16:18;;;;;;;0.52;0.38;;;15.60;99.90;;;;;;5127294;27;20039;-76
2023/09/13 10:18:48;;;;;;;0.20;0.20;;;15.70;1.00;;;;;;5127105;27;20031;-76
2023/09/13 10:21:25;;;;;;;0.20;0.17;;;15.80;1.00;;;;;;5125051;27;20051;-76
2023/09/13 10:24:01;;;;;;;0.40;0.10;;;16.00;1.00;;;;;;5121589;27;20031;-76
2023/09/13 10:26:30;;;;;;;1.20;1.00;;;16.10;99.90;;;;;;5119003;27;20047;-76
2023/09/13 10:29:04;;;;;;;0.25;0.20;;;16.30;1.00;;;;;;5126751;27;20035;-76
2023/09/13 10:31:34;;;;;;;0.17;0.05;;;16.60;99.90;;;;;;5122259;27;20043;-76
2023/09/13 10:34:05;;;;;;;0.00;0.00;;;16.90;99.90;;;;;;5123787;27;20145;-76
2023/09/13 10:36:34;;;;;;;0.10;0.10;;;17.10;99.90;;;;;;5126153;27;20058;-76
2023/09/13 10:39:21;;;;;;;1.52;0.77;;;17.30;99.90;;;;;;5126678;27;20035;-76
2023/09/13 10:42:06;;;;;;;0.40;0.05;;;17.80;99.90;;;;;;5115476;27;20039;-75
2023/09/13 10:44:34;;;;;;;0.30;0.30;;;18.00;1.00;;;;;;5125012;27;20054;-76
2023/09/13 10:47:00;;;;;;;0.75;0.52;;;18.10;99.90;;;;;;5125382;27;20039;-76
2023/09/13 10:49:26;;;;;;;0.30;0.30;;;18.50;99.90;;;;;;5126219;27;20507;-76
2023/09/13 10:51:55;;;;;;;0.10;0.08;;;18.10;99.90;;;;;;5122413;27;20044;-76
2023/09/13 10:54:22;;;;;;;1.40;0.32;;;18.30;1.90;;;;;;5123122;27;20082;-76
2023/09/13 10:56:49;;;;;;;0.00;0.00;;;18.50;99.90;;;;;;5125587;27;20043;-76
2023/09/13 10:59:19;;;;;;;0.25;0.15;;;18.90;99.90;;;;;;5126404;27;20039;-76
2023/09/13 11:01:46;;;;;;;1.35;0.30;;;19.20;99.90;;;;;;5125153;27;20082;-76
2023/09/13 11:04:20;;;;;;;0.45;0.22;;;19.40;99.90;;;;;;5126376;27;20082;-76
2023/09/13 11:06:50;;;;;;;0.10;0.10;;;19.50;99.90;;;;;;5125728;27;20035;-76
2023/09/13 11:09:26;;;;;;;0.08;0.08;;;19.50;99.90;;;;;;5123352;27;20027;-76
2023/09/13 11:11:52;;;;;;;;;;;19.50;99.90;;;;;;5122435;27;20039;-76
2023/09/13 11:14:26;;;;;;;0.38;0.30;;;19.60;12.30;;;;;;5123343;27;19927;-76
2023/09/13 11:16:52;;;;;;;0.00;0.00;;;19.80;99.90;;;;;;5123257;27;20499;-76
2023/09/13 11:19:24;;;;;;;0.80;0.30;;;19.90;99.90;;;;;;5122826;27;20119;-76
2023/09/13 11:21:52;;;;;;;0.05;0.05;;;19.90;13.50;;;;;;5121497;27;20476;-76
2023/09/13 11:24:38;;;;;;;0.22;0.20;;;19.80;1.00;;;;;;5123748;27;20039;-76
2023/09/13 11:27:14;;;;;;;0.45;0.38;;;20.00;52.90;;;;;;5123155;27;20131;-76
2023/09/13 11:29:42;;;;;;;0.20;0.20;;;20.10;4.30;;;;;;5126117;27;20043;-76
2023/09/13 11:32:20;;;;;;;0.20;0.15;;;20.10;1.00;;;;;;5125426;27;20040;-77
2023/09/13 11:34:54;;;;;;;0.30;0.17;;;20.30;40.30;;;;;;5123020;27;20508;-76
2023/09/13 11:37:20;;;;;;;0.30;0.30;;;20.30;1.00;;;;;;5131415;27;20046;-76
2023/09/13 11:40:15;;;;;;;0.10;0.10;;;20.50;1.00;;;;;;5120177;27;20035;-76
2023/09/13 11:42:41;;;;;;;0.43;0.40;;;20.60;1.00;;;;;;5104762;27;20069;-76
2023/09/13 11:45:09;;;;;;;0.75;0.47;;;20.90;87.20;;;;;;5122490;27;20069;-76
2023/09/13 11:47:36;;;;;;;0.20;0.20;;;21.30;1.00;;;;;;5123911;27;20078;-76
2023/09/13 11:50:03;;;;;;;2.92;0.93;;;21.30;1.00;;;;;;5125879;27;20049;-76
2023/09/13 11:53:20;;;;;;;0.13;0.13;;;21.20;1.00;;;;;;5125600;27;20055;-76
2023/09/13 11:55:55;;;;;;;0.00;0.00;;;21.30;99.90;;;;;;5111100;27;20507;-76
2023/09/13 11:58:46;;;;;;;0.75;0.55;;;21.40;1.00;;;;;;5126060;27;20047;-76
2023/09/13 12:01:11;;;;;;;0.22;0.10;;;21.50;99.90;;;;;;5116250;27;20040;-76
2023/09/13 12:03:41;;;;;;;0.70;0.65;;;21.70;1.00;;;;;;5131302;27;20120;-76
2023/09/13 12:06:08;;;;;;;0.10;0.05;;;21.20;99.90;;;;;;5112577;27;20057;-76
2023/09/13 12:08:38;;;;;;;1.55;0.80;;;21.00;99.90;;;;;;5122601;27;20038;-77
2023/09/13 12:11:07;;;;;;;0.20;0.20;;;20.70;99.90;;;;;;5125245;27;20043;-77
2023/09/13 12:13:45;;;;;;;0.00;0.00;;;20.60;99.90;;;;;;5128089;27;20485;-76
2023/09/13 12:16:11;;;;;;;0.25;0.20;;;20.80;99.90;;;;;;5125555;28;20052;-76
2023/09/13 12:18:38;;;;;;;0.08;0.08;;;21.70;99.90;;;;;;5125710;27;20083;-76
2023/09/13 12:21:08;;;;;;;0.00;0.00;;;22.00;99.90;;;;;;5124141;27;20431;-76
2023/09/13 12:23:38;;;;;;;0.20;0.20;;;21.60;99.90;;;;;;5121711;28;20084;-76
2023/09/13 12:26:09;;;;;;;0.00;0.00;;;21.20;99.90;;;;;;5121615;28;20046;-75
2023/09/13 12:28:39;;;;;;;0.60;0.60;;;20.90;99.90;;;;;;5129306;27;20035;-76
2023/09/13 12:31:06;;;;;;;0.00;0.00;;;20.40;99.90;;;;;;5122078;28;20075;-75
2023/09/13 12:33:34;;;;;;;0.45;0.25;;;20.50;99.90;;;;;;5124965;27;20035;-76
2023/09/13 12:36:01;;;;;;;0.82;0.63;;;20.90;99.90;;;;;;5121028;28;20043;-75
2023/09/13 12:38:43;;;;;;;1.27;0.73;;;20.90;99.90;;;;;;5121048;28;20470;-75
2023/09/13 12:41:27;;;;;;;0.05;0.05;;;20.60;99.90;;;;;;5125087;28;20039;-76
2023/09/13 12:43:53;;;;;;;0.20;0.15;;;20.00;99.90;;;;;;5114813;28;20035;-76
2023/09/13 12:46:21;;;;;;;0.15;0.15;;;18.90;99.90;;;;;;5120843;28;20370;-75
2023/09/13 12:48:49;;;;;;;2.60;0.70;;;18.40;99.90;;;;;;5107148;28;20036;-76
2023/09/13 12:51:21;;;;;;;0.50;0.22;;;18.20;99.90;;;;;;5124406;27;20055;-75